Time;durP1;ratioP1;P1;durP2;ratioP2;P2;SDS_P1;SDS_P2;PMS_P1;PMS_P2;Temp;Humidity;BMP_temperature;BMP_pressure;BME280_temperature;BME280_humidity;BME280_pressure;Samples;Min_cycle;Max_cycle;Signal;HPM_P1;HPM_P2
2021/04/22 04:00:52;;;;;;;16.13;3.17;;;6.10;99.90;;;;;;5717202;23;20257;-70
2021/04/22 04:03:20;;;;;;;9.20;2.63;;;6.10;99.90;;;;;;4935002;29;20269;-70
2021/04/22 04:05:46;;;;;;;5.18;2.40;;;6.10;99.90;;;;;;4933695;28;20221;-71
2021/04/22 04:08:12;;;;;;;8.00;3.17;;;6.10;99.90;;;;;;4950213;28;20225;-70
2021/04/22 04:10:38;;;;;;;4.72;2.13;;;6.10;99.90;;;;;;4916061;29;20249;-70
2021/04/22 04:13:05;;;;;;;4.10;2.17;;;6.20;99.90;;;;;;4933854;29;20214;-71
2021/04/22 04:15:31;;;;;;;4.05;2.35;;;6.20;99.90;;;;;;4934407;29;20206;-71
2021/04/22 04:17:59;;;;;;;7.82;2.75;;;6.20;99.90;;;;;;4929882;29;20665;-75
2021/04/22 04:20:25;;;;;;;5.80;2.10;;;6.30;99.90;;;;;;4928172;29;20592;-74
2021/04/22 04:22:51;;;;;;;10.30;3.53;;;6.30;99.90;;;;;;4924348;29;20213;-74
2021/04/22 04:25:18;;;;;;;7.47;2.35;;;6.30;99.90;;;;;;4922199;29;20210;-74
2021/04/22 04:27:44;;;;;;;5.43;2.83;;;6.30;99.90;;;;;;4930489;29;20596;-74
2021/04/22 04:30:15;;;;;;;9.98;2.67;;;6.30;99.90;;;;;;4927848;29;20216;-74
2021/04/22 04:32:41;;;;;;;6.35;2.40;;;6.30;99.90;;;;;;4933624;29;20210;-73
2021/04/22 04:35:10;;;;;;;1.70;1.58;;;6.40;99.90;;;;;;4921806;29;20262;-73
2021/04/22 04:37:36;;;;;;;7.00;2.20;;;6.40;99.90;;;;;;4935375;29;20213;-74
2021/04/22 04:40:03;;;;;;;8.55;2.85;;;6.40;99.90;;;;;;4943987;29;20660;-73
2021/04/22 04:42:30;;;;;;;11.57;2.50;;;6.40;99.90;;;;;;4925941;29;20237;-74
2021/04/22 04:44:56;;;;;;;13.85;2.47;;;6.40;99.90;;;;;;4932215;29;20988;-75
2021/04/22 04:47:22;;;;;;;5.82;2.50;;;6.40;99.90;;;;;;4932217;29;20245;-75
2021/04/22 04:49:48;;;;;;;2.80;2.22;;;6.40;99.90;;;;;;4916833;29;20218;-74
2021/04/22 04:52:15;;;;;;;5.22;2.70;;;6.50;99.90;;;;;;4927935;29;20256;-74
2021/04/22 04:54:41;;;;;;;9.10;2.60;;;6.50;99.90;;;;;;4929011;29;20214;-75
2021/04/22 04:57:09;;;;;;;4.70;2.50;;;6.50;99.90;;;;;;4921200;29;20210;-74
2021/04/22 04:59:35;;;;;;;7.70;2.90;;;6.60;99.90;;;;;;4915862;29;20202;-74
2021/04/22 05:02:03;;;;;;;5.80;2.85;;;6.60;99.90;;;;;;4927105;29;20241;-74
2021/04/22 05:04:29;;;;;;;5.95;2.50;;;6.60;99.90;;;;;;4916117;29;20206;-74
2021/04/22 05:06:56;;;;;;;7.13;2.35;;;6.70;99.90;;;;;;4924465;28;20273;-74
2021/04/22 05:09:23;;;;;;;7.18;2.67;;;6.70;99.90;;;;;;4918818;29;20226;-74
2021/04/22 05:11:49;;;;;;;5.85;2.63;;;6.80;99.90;;;;;;4922972;29;20225;-74
2021/04/22 05:14:15;;;;;;;8.02;2.95;;;6.80;99.90;;;;;;4915881;29;20600;-74
2021/04/22 05:16:41;;;;;;;3.88;2.78;;;6.90;99.90;;;;;;4916943;29;20216;-74
2021/04/22 05:19:08;;;;;;;4.03;2.65;;;6.90;99.90;;;;;;4931661;29;20603;-73
2021/04/22 05:21:34;;;;;;;7.82;2.85;;;7.00;99.90;;;;;;4928842;29;20229;-73
2021/04/22 05:24:00;;;;;;;12.85;2.72;;;7.00;99.90;;;;;;4933722;29;20207;-73
2021/04/22 05:26:27;;;;;;;4.90;2.85;;;7.00;99.90;;;;;;4927169;29;20222;-73
2021/04/22 05:28:55;;;;;;;16.15;2.42;;;6.90;99.90;;;;;;4917195;29;20655;-74
2021/04/22 05:31:21;;;;;;;9.57;2.50;;;6.90;99.90;;;;;;4933491;29;20389;-73
2021/04/22 05:33:47;;;;;;;12.95;2.42;;;7.00;99.90;;;;;;4922369;29;20262;-73
2021/04/22 05:36:13;;;;;;;7.80;3.13;;;7.00;99.90;;;;;;4932882;29;20214;-73
2021/04/22 05:38:40;;;;;;;8.43;2.67;;;7.10;99.90;;;;;;4930942;29;20620;-73
2021/04/22 05:41:06;;;;;;;10.63;1.95;;;7.20;99.90;;;;;;4914388;29;20234;-73
2021/04/22 05:43:33;;;;;;;4.72;2.05;;;7.20;99.90;;;;;;4924975;29;20232;-73
2021/04/22 05:46:00;;;;;;;12.43;2.85;;;7.20;99.90;;;;;;4920014;29;20225;-73
2021/04/22 05:48:27;;;;;;;6.82;2.72;;;7.30;99.90;;;;;;4924103;29;20384;-73
2021/04/22 05:50:53;;;;;;;7.95;2.50;;;7.40;99.90;;;;;;4913723;29;20234;-72
2021/04/22 05:53:21;;;;;;;6.10;2.35;;;7.50;99.90;;;;;;4914562;29;20211;-71
2021/04/22 05:55:47;;;;;;;6.10;2.45;;;7.50;99.90;;;;;;4913140;29;20234;-71
2021/04/22 05:58:13;;;;;;;6.30;2.47;;;7.60;99.90;;;;;;4913934;29;20210;-71
2021/04/22 06:00:40;;;;;;;9.88;2.70;;;7.60;99.90;;;;;;4914103;29;20238;-70
2021/04/22 06:03:07;;;;;;;4.25;2.60;;;7.60;99.90;;;;;;4915163;29;20269;-70
2021/04/22 06:05:33;;;;;;;5.97;2.85;;;7.70;99.90;;;;;;4915247;29;20214;-71
2021/04/22 06:07:59;;;;;;;3.22;2.38;;;7.70;99.90;;;;;;4920880;28;20262;-73
2021/04/22 06:10:26;;;;;;;5.47;2.40;;;7.70;99.90;;;;;;4927151;29;20209;-71
2021/04/22 06:12:52;;;;;;;5.40;2.00;;;7.70;99.90;;;;;;4919124;29;20206;-71
2021/04/22 06:15:21;;;;;;;7.78;2.22;;;7.70;99.90;;;;;;4926928;29;20210;-72
2021/04/22 06:17:48;;;;;;;6.15;2.35;;;7.70;99.90;;;;;;4923398;29;20211;-71
2021/04/22 06:20:16;;;;;;;9.82;1.83;;;7.70;99.90;;;;;;4933525;29;20229;-73
2021/04/22 06:22:42;;;;;;;5.72;2.00;;;7.80;99.90;;;;;;4914679;29;20206;-72
2021/04/22 06:25:10;;;;;;;8.23;2.30;;;7.80;99.90;;;;;;4932172;29;20573;-72
2021/04/22 06:27:36;;;;;;;7.82;1.92;;;7.80;99.90;;;;;;4935306;29;20617;-72
2021/04/22 06:30:04;;;;;;;7.90;2.92;;;7.90;99.90;;;;;;4929492;29;20210;-72
2021/04/22 06:32:31;;;;;;;6.93;2.70;;;7.90;99.90;;;;;;4922450;29;20326;-72
2021/04/22 06:34:58;;;;;;;5.57;2.10;;;8.00;99.90;;;;;;4930800;29;20655;-71
2021/04/22 06:37:25;;;;;;;8.32;3.97;;;8.00;99.90;;;;;;4919881;29;20217;-71
2021/04/22 06:39:52;;;;;;;6.57;2.15;;;8.00;99.90;;;;;;4918101;29;20214;-71
2021/04/22 06:42:18;;;;;;;11.43;3.33;;;8.00;99.90;;;;;;4918733;29;20246;-72
2021/04/22 06:44:44;;;;;;;13.68;2.67;;;8.10;99.90;;;;;;4917218;29;20258;-72
2021/04/22 06:47:12;;;;;;;4.03;2.10;;;8.10;99.90;;;;;;4918267;29;20241;-72
2021/04/22 06:49:38;;;;;;;5.88;2.50;;;8.00;99.90;;;;;;4918114;29;20210;-72
2021/04/22 06:52:06;;;;;;;3.90;2.83;;;8.00;99.90;;;;;;4917727;28;20230;-72
2021/04/22 06:54:32;;;;;;;7.03;2.90;;;7.90;99.90;;;;;;4918477;29;20211;-73
2021/04/22 06:57:00;;;;;;;4.03;1.98;;;8.00;99.90;;;;;;4923225;29;20277;-73
2021/04/22 06:59:26;;;;;;;6.10;2.67;;;8.10;99.90;;;;;;4927013;29;20202;-73
2021/04/22 07:01:52;;;;;;;6.40;2.75;;;8.10;99.90;;;;;;4932826;29;20237;-72
2021/04/22 07:04:19;;;;;;;8.07;2.55;;;8.30;99.90;;;;;;4936883;29;20573;-72
2021/04/22 07:06:45;;;;;;;8.30;2.60;;;8.40;99.90;;;;;;4922451;29;20281;-76
2021/04/22 07:09:15;;;;;;;3.22;2.22;;;8.60;99.90;;;;;;4923157;29;20226;-76
2021/04/22 07:11:41;;;;;;;5.95;2.55;;;8.70;99.90;;;;;;4921190;29;20885;-73
2021/04/22 07:14:07;;;;;;;7.15;2.63;;;8.80;99.90;;;;;;4917969;29;20211;-76
2021/04/22 07:16:36;;;;;;;11.73;2.70;;;8.90;99.90;;;;;;4932551;29;20268;-77
2021/04/22 07:19:03;;;;;;;9.23;3.25;;;9.00;99.90;;;;;;4933902;29;20297;-73
2021/04/22 07:21:29;;;;;;;3.83;2.40;;;9.00;99.90;;;;;;4921171;29;20226;-73
2021/04/22 07:23:55;;;;;;;8.80;2.83;;;9.10;99.90;;;;;;4934991;29;20206;-73
2021/04/22 07:26:22;;;;;;;6.22;2.78;;;9.00;99.90;;;;;;4931059;29;20207;-75
2021/04/22 07:28:49;;;;;;;7.53;2.97;;;9.00;99.90;;;;;;4932338;29;20254;-71
2021/04/22 07:31:15;;;;;;;9.48;2.25;;;9.10;99.90;;;;;;4919328;29;20290;-71
2021/04/22 07:33:41;;;;;;;12.05;3.08;;;9.20;99.90;;;;;;4924174;29;20236;-71
2021/04/22 07:36:08;;;;;;;8.25;2.95;;;9.20;99.90;;;;;;4917858;29;20357;-71
2021/04/22 07:38:34;;;;;;;5.93;2.75;;;9.30;99.90;;;;;;4922506;29;20203;-71
2021/04/22 07:41:00;;;;;;;7.53;2.15;;;9.40;99.90;;;;;;4926564;29;20242;-73
2021/04/22 07:43:27;;;;;;;2.92;2.35;;;9.50;99.90;;;;;;4929414;29;20215;-76
2021/04/22 07:45:53;;;;;;;8.45;2.85;;;9.60;99.90;;;;;;4924812;29;20210;-76
2021/04/22 07:48:20;;;;;;;5.25;2.10;;;9.70;99.90;;;;;;4919946;29;20230;-76
2021/04/22 07:50:46;;;;;;;6.78;1.80;;;9.60;99.90;;;;;;4933264;29;20226;-76
2021/04/22 07:53:12;;;;;;;2.58;2.25;;;9.60;99.90;;;;;;4921531;29;20210;-76
2021/04/22 07:55:41;;;;;;;6.93;2.53;;;9.70;99.90;;;;;;4923797;29;20214;-76
2021/04/22 07:58:08;;;;;;;6.40;2.22;;;9.90;99.90;;;;;;4920273;28;20242;-76
2021/04/22 08:00:36;;;;;;;4.25;2.00;;;10.10;99.90;;;;;;4929142;29;20230;-76
2021/04/22 08:03:03;;;;;;;4.35;2.20;;;10.20;99.90;;;;;;4922595;29;20214;-70
2021/04/22 08:05:32;;;;;;;9.32;2.95;;;10.00;99.90;;;;;;4944941;29;20213;-72
2021/04/22 08:07:58;;;;;;;4.57;3.10;;;9.90;99.90;;;;;;4933191;29;20218;-72
2021/04/22 08:10:29;;;;;;;7.40;2.75;;;10.00;99.90;;;;;;4934994;29;20217;-73
2021/04/22 08:12:55;;;;;;;5.53;2.60;;;10.00;99.90;;;;;;4926708;29;20225;-73
2021/04/22 08:15:22;;;;;;;8.77;2.28;;;10.00;99.90;;;;;;4922157;29;20202;-73
2021/04/22 08:17:50;;;;;;;6.32;2.38;;;10.00;99.90;;;;;;4924793;29;20202;-73
2021/04/22 08:20:19;;;;;;;8.35;2.53;;;10.10;99.90;;;;;;4929867;29;20407;-72
2021/04/22 08:22:47;;;;;;;6.03;2.60;;;10.00;99.90;;;;;;4916520;29;20615;-73
2021/04/22 08:25:18;;;;;;;10.23;3.33;;;10.00;99.90;;;;;;4927187;29;20229;-72
2021/04/22 08:27:46;;;;;;;3.05;2.15;;;10.20;99.90;;;;;;4922478;29;20758;-72
2021/04/22 08:30:15;;;;;;;4.63;3.70;;;10.30;99.90;;;;;;4934614;29;20210;-72
2021/04/22 08:32:42;;;;;;;6.88;2.25;;;10.50;99.90;;;;;;4928318;29;20217;-73
2021/04/22 08:35:10;;;;;;;8.88;2.67;;;10.50;99.90;;;;;;4916183;29;20290;-73
2021/04/22 08:37:37;;;;;;;6.97;2.05;;;10.70;99.90;;;;;;4920150;29;20203;-77
2021/04/22 08:40:09;;;;;;;5.45;2.15;;;10.80;99.90;;;;;;4927900;29;20206;-77
2021/04/22 08:42:35;;;;;;;6.03;2.10;;;10.70;99.90;;;;;;4934452;28;20221;-74
2021/04/22 08:45:04;;;;;;;6.68;2.72;;;10.70;99.90;;;;;;4928690;29;20210;-75
2021/04/22 08:47:31;;;;;;;5.05;2.17;;;10.70;99.90;;;;;;4934545;29;20210;-77
2021/04/22 08:49:57;;;;;;;6.80;2.20;;;10.60;99.90;;;;;;4934082;29;20216;-79
2021/04/22 08:52:25;;;;;;;9.05;2.22;;;10.70;99.90;;;;;;4922360;29;20259;-77
2021/04/22 08:54:51;;;;;;;5.65;2.08;;;10.80;99.90;;;;;;4919135;29;20542;-74
2021/04/22 08:57:18;;;;;;;10.60;2.70;;;10.90;99.90;;;;;;4916058;29;20218;-75
2021/04/22 08:59:44;;;;;;;4.85;1.88;;;11.00;99.90;;;;;;4916199;29;20202;-77
2021/04/22 09:02:10;;;;;;;4.80;2.78;;;11.10;99.90;;;;;;4917391;29;20306;-77
2021/04/22 09:04:37;;;;;;;3.45;2.55;;;11.00;99.90;;;;;;4926350;29;20210;-75
2021/04/22 09:07:03;;;;;;;4.72;2.05;;;11.00;99.90;;;;;;4934900;29;20586;-73
2021/04/22 09:09:30;;;;;;;12.38;3.30;;;10.90;99.90;;;;;;4921345;29;20226;-73
2021/04/22 09:11:57;;;;;;;5.57;2.40;;;10.90;99.90;;;;;;4915420;29;20239;-74
2021/04/22 09:14:23;;;;;;;4.88;2.53;;;10.80;99.90;;;;;;4919127;29;20206;-73
2021/04/22 09:16:51;;;;;;;6.88;2.47;;;10.90;99.90;;;;;;4922703;29;20210;-74
2021/04/22 09:19:19;;;;;;;3.72;3.35;;;10.90;99.90;;;;;;4915671;29;20207;-72
2021/04/22 09:21:52;;;;;;;14.90;4.05;;;10.90;99.90;;;;;;4925800;29;20714;-73
2021/04/22 09:24:20;;;;;;;4.25;2.20;;;10.90;99.90;;;;;;4931454;29;20203;-72
2021/04/22 09:26:50;;;;;;;5.63;3.30;;;10.80;99.90;;;;;;4933928;29;20212;-75
2021/04/22 09:29:31;;;;;;;10.20;2.65;;;10.90;99.90;;;;;;4931726;29;20300;-76
2021/04/22 09:32:10;;;;;;;7.05;2.50;;;11.20;99.60;;;;;;4915881;29;20603;-72
2021/04/22 09:34:37;;;;;;;5.70;2.67;;;11.20;98.60;;;;;;4915613;29;20211;-73
2021/04/22 09:37:03;;;;;;;5.45;3.67;;;11.20;98.20;;;;;;4917188;29;20571;-71
2021/04/22 09:39:31;;;;;;;5.95;2.30;;;11.10;98.40;;;;;;4915194;29;20225;-70
2021/04/22 09:42:00;;;;;;;10.35;3.38;;;11.00;98.40;;;;;;4914883;29;20311;-71
2021/04/22 09:44:27;;;;;;;6.13;3.08;;;10.90;99.00;;;;;;4914302;29;20206;-70
2021/04/22 09:47:10;;;;;;;2.92;2.38;;;11.00;99.90;;;;;;4915220;29;20301;-71
2021/04/22 09:49:48;;;;;;;2.65;2.45;;;11.00;98.70;;;;;;4914790;29;20237;-71
2021/04/22 09:52:17;;;;;;;4.97;3.45;;;10.90;98.70;;;;;;4914858;29;20229;-71
2021/04/22 09:54:47;;;;;;;2.88;2.38;;;10.90;99.20;;;;;;4914196;29;20297;-71
2021/04/22 09:57:34;;;;;;;6.32;3.58;;;10.90;99.00;;;;;;4914579;29;20278;-72
2021/04/22 10:00:01;;;;;;;9.75;3.38;;;11.00;99.40;;;;;;4913746;29;20202;-70
2021/04/22 10:02:28;;;;;;;4.97;2.75;;;11.10;99.10;;;;;;4914141;29;20254;-70
2021/04/22 10:04:55;;;;;;;3.80;2.45;;;11.30;99.60;;;;;;4913718;29;20233;-70
2021/04/22 10:07:24;;;;;;;5.38;3.22;;;11.40;98.60;;;;;;4914836;29;20619;-70
2021/04/22 10:09:52;;;;;;;3.63;2.83;;;11.50;98.30;;;;;;4913633;29;20222;-70
2021/04/22 10:12:23;;;;;;;5.85;2.95;;;11.40;98.30;;;;;;4914580;29;20640;-71
2021/04/22 10:14:51;;;;;;;4.28;2.70;;;11.30;96.50;;;;;;4917062;29;20210;-71
2021/04/22 10:17:18;;;;;;;10.57;3.35;;;11.30;96.60;;;;;;4915177;29;20538;-70
2021/04/22 10:19:58;;;;;;;6.53;2.70;;;11.40;97.20;;;;;;4914534;29;20202;-71
2021/04/22 10:22:29;;;;;;;5.10;2.83;;;11.50;97.60;;;;;;4914283;29;20648;-70
2021/04/22 10:24:56;;;;;;;10.13;2.90;;;11.50;97.80;;;;;;4914034;29;20396;-69
2021/04/22 10:27:24;;;;;;;3.40;2.40;;;11.40;97.30;;;;;;4914782;29;20211;-69
2021/04/22 10:29:52;;;;;;;3.45;2.75;;;11.30;96.80;;;;;;4913979;29;20321;-69
2021/04/22 10:32:20;;;;;;;11.57;2.90;;;11.40;97.10;;;;;;4915194;29;20285;-68
2021/04/22 10:34:47;;;;;;;7.88;2.88;;;11.50;97.10;;;;;;4917002;29;20278;-75
2021/04/22 10:37:14;;;;;;;5.85;3.63;;;11.60;97.00;;;;;;4919584;29;20100;-70
2021/04/22 10:39:42;;;;;;;8.38;3.10;;;11.60;96.80;;;;;;4916321;29;20266;-75
2021/04/22 10:42:08;;;;;;;6.32;3.72;;;11.70;96.80;;;;;;4918608;29;20229;-75
2021/04/22 10:44:37;;;;;;;6.18;3.90;;;11.70;96.70;;;;;;4921569;29;20225;-75
2021/04/22 10:47:05;;;;;;;9.77;4.05;;;11.50;97.10;;;;;;4914584;29;20249;-75
2021/04/22 10:49:32;;;;;;;5.40;3.33;;;11.40;97.70;;;;;;4914358;29;20231;-75
2021/04/22 10:51:58;;;;;;;5.60;3.60;;;11.20;98.10;;;;;;4929544;29;20244;-76
2021/04/22 10:54:25;;;;;;;8.20;4.32;;;11.00;98.80;;;;;;4928310;29;20199;-75
2021/04/22 10:57:02;;;;;;;3.70;3.50;;;11.00;98.70;;;;;;4928900;29;20202;-75
2021/04/22 10:59:28;;;;;;;8.02;3.70;;;11.10;98.60;;;;;;4933112;29;20545;-75
2021/04/22 11:01:54;;;;;;;6.00;3.30;;;11.10;98.30;;;;;;4932836;29;20237;-75
2021/04/22 11:04:22;;;;;;;5.22;3.63;;;11.30;98.80;;;;;;4931969;29;20202;-75
2021/04/22 11:06:48;;;;;;;4.68;3.08;;;11.50;97.50;;;;;;4921667;29;20691;-76
2021/04/22 11:09:17;;;;;;;5.75;2.85;;;11.60;97.40;;;;;;4917498;29;20242;-75
2021/04/22 11:11:56;;;;;;;4.80;3.97;;;11.80;97.20;;;;;;4929544;29;20234;-73
2021/04/22 11:14:32;;;;;;;3.00;2.80;;;11.60;98.10;;;;;;4939730;29;20289;-72
2021/04/22 11:16:59;;;;;;;6.13;3.65;;;11.40;98.70;;;;;;4937187;29;20213;-70
2021/04/22 11:19:32;;;;;;;4.88;3.63;;;11.30;99.60;;;;;;4936622;28;20218;-70
2021/04/22 11:21:59;;;;;;;3.85;2.75;;;11.40;99.00;;;;;;4936540;29;20801;-70
2021/04/22 11:24:34;;;;;;;3.72;3.40;;;11.30;98.70;;;;;;4936338;29;20212;-71
2021/04/22 11:27:02;;;;;;;8.60;3.45;;;11.30;99.60;;;;;;4936329;29;20546;-71
2021/04/22 11:29:39;;;;;;;3.70;3.00;;;11.40;99.30;;;;;;4936210;29;20562;-71
2021/04/22 11:32:26;;;;;;;4.75;4.30;;;11.30;98.20;;;;;;4936439;29;20316;-69
2021/04/22 11:34:57;;;;;;;8.02;4.05;;;11.50;99.70;;;;;;4937318;29;20213;-70
2021/04/22 11:37:25;;;;;;;6.95;3.92;;;11.60;99.90;;;;;;4942559;29;20218;-70
2021/04/22 11:39:52;;;;;;;9.00;4.53;;;11.60;99.90;;;;;;4936183;29;20218;-71
2021/04/22 11:42:19;;;;;;;4.05;3.13;;;11.40;99.90;;;;;;4936549;29;20626;-72
2021/04/22 11:44:49;;;;;;;5.07;3.33;;;11.50;99.90;;;;;;4936063;29;20217;-70
2021/04/22 11:47:17;;;;;;;5.80;3.25;;;11.50;99.90;;;;;;4936734;29;20644;-72
2021/04/22 11:49:44;;;;;;;9.45;3.45;;;11.60;99.90;;;;;;4936226;29;20253;-71
2021/04/22 11:52:22;;;;;;;5.10;3.20;;;11.70;99.90;;;;;;4936413;29;20234;-72
2021/04/22 11:54:49;;;;;;;5.00;3.75;;;11.90;99.90;;;;;;4935834;29;20209;-72
2021/04/22 11:57:16;;;;;;;5.68;3.83;;;12.00;99.90;;;;;;4936201;29;20210;-71
2021/04/22 11:59:43;;;;;;;10.82;3.70;;;11.90;99.90;;;;;;4935692;29;20265;-71
2021/04/22 12:02:11;;;;;;;5.78;3.75;;;11.90;99.90;;;;;;4935749;29;20780;-71
2021/04/22 12:04:39;;;;;;;5.45;2.10;;;11.80;99.90;;;;;;4935751;29;20224;-69
2021/04/22 12:07:07;;;;;;;9.18;4.32;;;11.80;99.90;;;;;;4936227;29;20226;-70
2021/04/22 12:09:35;;;;;;;5.07;3.00;;;11.50;99.90;;;;;;4935647;29;20237;-70
2021/04/22 12:12:23;;;;;;;5.22;3.50;;;11.60;99.90;;;;;;4935241;29;20234;-70
2021/04/22 12:14:52;;;;;;;3.17;2.88;;;11.60;99.90;;;;;;4931083;29;20241;-70
2021/04/22 12:17:26;;;;;;;6.18;3.13;;;11.50;99.90;;;;;;4935785;29;20214;-70
2021/04/22 12:19:55;;;;;;;8.13;3.55;;;11.30;99.90;;;;;;4935406;29;20213;-70
2021/04/22 12:22:31;;;;;;;4.72;2.90;;;11.20;99.90;;;;;;4935127;29;20229;-70
2021/04/22 12:24:59;;;;;;;12.50;4.10;;;11.00;99.90;;;;;;4935221;29;20644;-70
2021/04/22 12:27:27;;;;;;;5.75;2.88;;;10.90;99.90;;;;;;4935567;29;20240;-71
2021/04/22 12:29:54;;;;;;;4.63;3.28;;;10.80;99.90;;;;;;4935064;29;20234;-71
2021/04/22 12:32:20;;;;;;;4.22;2.70;;;10.80;99.90;;;;;;4935464;29;20229;-70
2021/04/22 12:34:47;;;;;;;4.53;2.92;;;10.90;99.90;;;;;;4935386;29;20324;-70
2021/04/22 12:37:13;;;;;;;3.85;3.50;;;10.90;99.90;;;;;;4935352;29;20507;-70
2021/04/22 12:39:42;;;;;;;5.70;3.42;;;11.00;99.90;;;;;;4935094;29;20206;-71
2021/04/22 12:42:14;;;;;;;5.97;3.00;;;11.30;99.90;;;;;;4935066;29;20651;-72
2021/04/22 12:44:42;;;;;;;4.28;3.15;;;11.50;99.90;;;;;;4934744;29;20218;-69
2021/04/22 12:47:10;;;;;;;4.45;3.00;;;11.80;99.90;;;;;;4935444;29;20206;-69
2021/04/22 12:49:46;;;;;;;3.35;3.15;;;11.90;99.90;;;;;;4935005;29;20329;-72
2021/04/22 12:52:12;;;;;;;6.22;2.97;;;11.90;99.90;;;;;;4935296;29;20229;-70
2021/04/22 12:54:38;;;;;;;3.08;2.85;;;11.90;99.90;;;;;;4935244;29;20579;-70
2021/04/22 12:57:12;;;;;;;3.88;2.97;;;11.90;99.90;;;;;;4935166;28;20229;-69
2021/04/22 12:59:46;;;;;;;6.88;3.03;;;11.60;99.90;;;;;;4934817;29;20519;-69
2021/04/22 13:02:13;;;;;;;3.65;2.92;;;11.30;99.90;;;;;;4935079;29;20236;-69
2021/04/22 13:04:40;;;;;;;6.40;3.25;;;11.30;99.90;;;;;;4935258;29;20240;-69
2021/04/22 13:07:06;;;;;;;4.82;2.72;;;11.40;99.90;;;;;;4935043;29;20232;-69
2021/04/22 13:09:33;;;;;;;5.95;3.85;;;11.30;99.90;;;;;;4934748;29;20239;-70
2021/04/22 13:11:59;;;;;;;7.13;3.53;;;11.30;99.90;;;;;;4934354;29;20244;-69
2021/04/22 13:14:29;;;;;;;3.35;3.15;;;11.30;99.90;;;;;;4934213;29;20236;-70
2021/04/22 13:16:57;;;;;;;3.03;2.22;;;11.30;99.90;;;;;;4934681;29;20213;-69
2021/04/22 13:19:24;;;;;;;4.35;2.70;;;11.10;99.90;;;;;;4934711;29;20210;-70
2021/04/22 13:21:53;;;;;;;7.30;2.75;;;11.20;99.90;;;;;;4934864;29;20316;-70
2021/04/22 13:24:23;;;;;;;3.92;3.10;;;11.10;99.90;;;;;;4935390;29;20210;-70
2021/04/22 13:26:52;;;;;;;7.93;3.95;;;11.10;99.90;;;;;;4934660;29;20218;-69
2021/04/22 13:29:19;;;;;;;2.97;2.60;;;11.20;99.90;;;;;;4933818;29;20226;-70
2021/04/22 13:31:48;;;;;;;6.65;3.20;;;11.30;99.90;;;;;;4934605;29;20285;-69
2021/04/22 13:34:16;;;;;;;8.10;3.08;;;11.40;99.90;;;;;;4933814;29;20217;-69
2021/04/22 13:36:45;;;;;;;2.78;2.60;;;11.50;99.90;;;;;;4935773;29;20214;-69
2021/04/22 13:39:12;;;;;;;4.45;3.17;;;11.50;99.90;;;;;;4935442;29;20228;-71
2021/04/22 13:41:39;;;;;;;5.43;2.83;;;11.40;99.90;;;;;;4934775;29;20641;-72
2021/04/22 13:44:09;;;;;;;5.07;3.05;;;11.30;99.90;;;;;;4935942;29;20577;-72
2021/04/22 13:46:35;;;;;;;3.97;3.42;;;11.20;99.90;;;;;;4935289;29;20213;-69
2021/04/22 13:49:08;;;;;;;3.95;2.85;;;11.10;99.90;;;;;;4934281;29;20226;-69
2021/04/22 13:51:35;;;;;;;11.80;3.05;;;11.00;99.90;;;;;;4934239;29;20242;-69
2021/04/22 13:54:08;;;;;;;2.47;2.38;;;10.90;99.90;;;;;;4934323;29;20674;-69
2021/04/22 13:56:35;;;;;;;4.38;3.35;;;10.70;99.90;;;;;;4934802;29;20214;-70
2021/04/22 13:59:07;;;;;;;3.63;3.38;;;10.80;99.90;;;;;;4934446;29;20213;-70
2021/04/22 14:01:33;;;;;;;4.55;3.33;;;11.10;99.90;;;;;;4935060;29;20265;-70
2021/04/22 14:03:59;;;;;;;3.30;3.00;;;11.20;99.90;;;;;;4934402;29;20304;-70
2021/04/22 14:06:34;;;;;;;7.28;3.75;;;11.30;99.90;;;;;;4933958;29;20216;-70
2021/04/22 14:09:02;;;;;;;6.22;3.50;;;11.30;99.90;;;;;;4934356;29;20232;-71
2021/04/22 14:11:36;;;;;;;8.45;4.25;;;11.20;99.90;;;;;;4933489;29;20237;-70
2021/04/22 14:14:03;;;;;;;3.80;3.60;;;11.20;99.90;;;;;;4933268;29;20690;-70
2021/04/22 14:16:30;;;;;;;5.20;4.72;;;11.20;99.90;;;;;;4934065;29;20281;-70
2021/04/22 14:18:56;;;;;;;5.72;4.22;;;11.20;99.90;;;;;;4933818;29;20686;-70
2021/04/22 14:21:22;;;;;;;2.90;2.70;;;11.30;99.90;;;;;;4933482;29;20548;-71
2021/04/22 14:23:53;;;;;;;4.55;2.80;;;11.40;99.90;;;;;;4933500;29;20210;-72
2021/04/22 14:26:19;;;;;;;3.95;2.28;;;11.20;99.90;;;;;;4934883;29;20569;-72
2021/04/22 14:28:46;;;;;;;2.60;2.40;;;11.10;99.90;;;;;;4934345;29;20230;-73
2021/04/22 14:31:12;;;;;;;10.55;3.40;;;11.00;99.90;;;;;;4934919;29;20240;-72
2021/04/22 14:33:38;;;;;;;2.58;2.45;;;11.10;99.90;;;;;;4934476;29;20209;-72
2021/04/22 14:36:05;;;;;;;5.03;2.85;;;11.10;99.90;;;;;;4935301;29;20221;-72
2021/04/22 14:38:31;;;;;;;6.82;2.50;;;11.10;99.90;;;;;;4934757;29;20580;-72
2021/04/22 14:40:58;;;;;;;3.05;2.85;;;11.00;99.90;;;;;;4934124;29;20296;-72
2021/04/22 14:43:25;;;;;;;3.08;2.22;;;11.00;99.90;;;;;;4933550;29;20233;-72
2021/04/22 14:45:51;;;;;;;8.02;3.97;;;11.00;99.90;;;;;;4936416;29;20213;-70
2021/04/22 14:48:17;;;;;;;10.30;3.17;;;11.10;99.90;;;;;;4937675;29;20217;-70
2021/04/22 14:50:43;;;;;;;6.40;2.70;;;11.30;99.90;;;;;;4937538;29;20226;-70
2021/04/22 14:53:09;;;;;;;5.00;2.33;;;11.60;99.90;;;;;;4937707;29;20210;-70
2021/04/22 14:55:35;;;;;;;2.15;2.00;;;11.80;99.90;;;;;;4937636;29;20220;-70
2021/04/22 14:58:02;;;;;;;4.70;4.30;;;11.90;99.90;;;;;;4937624;28;20218;-70
2021/04/22 15:00:28;;;;;;;2.25;1.83;;;12.10;99.90;;;;;;4939092;29;20599;-70
2021/04/22 15:02:55;;;;;;;2.38;2.08;;;12.10;99.90;;;;;;4937124;29;20210;-70
2021/04/22 15:05:21;;;;;;;5.00;2.45;;;12.00;99.90;;;;;;4937595;29;20627;-70
2021/04/22 15:07:47;;;;;;;2.22;2.08;;;11.80;99.90;;;;;;4937144;29;20241;-70
2021/04/22 15:10:14;;;;;;;7.07;3.25;;;11.70;99.90;;;;;;4936824;29;20745;-70
2021/04/22 15:12:40;;;;;;;4.85;2.70;;;11.70;99.90;;;;;;4936768;29;20249;-70
2021/04/22 15:15:08;;;;;;;3.17;2.88;;;11.90;99.90;;;;;;4936394;29;20241;-72
2021/04/22 15:17:34;;;;;;;2.50;2.30;;;12.00;99.90;;;;;;4937179;29;20543;-72
2021/04/22 15:20:01;;;;;;;5.38;2.90;;;12.10;99.90;;;;;;4937092;29;20359;-71
2021/04/22 15:22:27;;;;;;;2.13;1.92;;;12.00;99.90;;;;;;4937081;29;20337;-71
2021/04/22 15:24:54;;;;;;;2.28;1.90;;;12.10;99.70;;;;;;4936489;29;20221;-72
2021/04/22 15:27:20;;;;;;;2.92;2.67;;;12.00;98.90;;;;;;4937459;29;20209;-72
2021/04/22 15:29:46;;;;;;;4.15;2.05;;;12.00;99.50;;;;;;4937008;29;20237;-72
2021/04/22 15:32:14;;;;;;;4.35;1.67;;;11.90;99.90;;;;;;4936781;29;20594;-72
2021/04/22 15:34:41;;;;;;;4.78;2.80;;;11.90;99.70;;;;;;4937504;29;20581;-73
2021/04/22 15:37:09;;;;;;;3.38;1.73;;;11.80;99.90;;;;;;4937247;29;20304;-70
2021/04/22 15:39:36;;;;;;;2.85;2.35;;;11.80;99.20;;;;;;4936273;29;20269;-70
2021/04/22 15:42:03;;;;;;;1.88;1.77;;;11.80;99.40;;;;;;4935548;29;20230;-68
2021/04/22 15:44:30;;;;;;;2.13;1.85;;;11.70;99.30;;;;;;4935550;29;20605;-71
2021/04/22 15:46:57;;;;;;;5.07;2.40;;;11.70;99.60;;;;;;4936147;29;20590;-71
2021/04/22 15:49:24;;;;;;;3.22;2.97;;;11.70;99.90;;;;;;4936072;29;20565;-71
2021/04/22 15:51:50;;;;;;;2.65;2.50;;;11.60;99.80;;;;;;4935886;29;20242;-70
2021/04/22 15:54:17;;;;;;;2.25;2.05;;;11.50;99.90;;;;;;4935759;29;20311;-71
2021/04/22 15:56:43;;;;;;;5.40;2.17;;;11.40;99.20;;;;;;4934669;28;20209;-70
2021/04/22 15:59:09;;;;;;;4.15;2.17;;;11.40;99.90;;;;;;4935356;29;20210;-71
2021/04/22 16:01:36;;;;;;;5.65;3.08;;;11.40;99.90;;;;;;4935181;29;20605;-71
2021/04/22 16:04:02;;;;;;;2.45;2.20;;;11.20;99.90;;;;;;4935570;29;20206;-72
2021/04/22 16:06:30;;;;;;;5.43;2.40;;;11.20;99.90;;;;;;4935777;29;20213;-72
2021/04/22 16:08:56;;;;;;;6.88;2.83;;;11.30;99.90;;;;;;4935857;29;20233;-72
2021/04/22 16:11:23;;;;;;;3.22;2.88;;;11.30;99.90;;;;;;4935549;29;20244;-71
2021/04/22 16:13:49;;;;;;;3.10;2.90;;;11.20;99.90;;;;;;4934913;29;20237;-71
2021/04/22 16:16:15;;;;;;;2.03;1.90;;;11.10;99.90;;;;;;4935661;29;20210;-71
2021/04/22 16:18:41;;;;;;;2.90;2.80;;;10.90;99.90;;;;;;4935487;29;20209;-70
2021/04/22 16:21:08;;;;;;;3.25;2.47;;;10.80;99.90;;;;;;4935004;29;20717;-70
2021/04/22 16:23:35;;;;;;;5.65;5.15;;;10.80;99.90;;;;;;4935124;29;20220;-69
2021/04/22 16:26:02;;;;;;;13.15;4.25;;;10.80;99.90;;;;;;4935130;29;20202;-69
2021/04/22 16:28:28;;;;;;;5.03;3.33;;;10.90;99.90;;;;;;4934628;29;20213;-69
2021/04/22 16:30:54;;;;;;;4.22;3.42;;;10.90;99.90;;;;;;4935031;29;20240;-69
2021/04/22 16:33:21;;;;;;;6.18;3.95;;;10.90;99.90;;;;;;4935640;29;20210;-70
2021/04/22 16:35:47;;;;;;;3.35;2.80;;;10.90;99.90;;;;;;4936027;29;20222;-70
2021/04/22 16:38:13;;;;;;;4.60;3.33;;;10.90;99.90;;;;;;4935532;29;20213;-69
2021/04/22 16:40:40;;;;;;;4.75;3.10;;;10.70;99.90;;;;;;4934591;29;20292;-69
2021/04/22 16:43:08;;;;;;;3.55;2.50;;;10.70;99.90;;;;;;4934544;29;20611;-68
2021/04/22 16:45:34;;;;;;;6.55;3.15;;;10.80;99.90;;;;;;4935044;29;20210;-69
2021/04/22 16:48:00;;;;;;;4.70;3.08;;;10.80;99.90;;;;;;4934891;29;20586;-69
2021/04/22 16:50:26;;;;;;;4.50;3.47;;;10.60;99.90;;;;;;4934545;29;20242;-69